Airfield :
LOGIN :

Register | Disclaimer

   EN    FR    IT 

 










Legend :    VFR   Marginal VFR   IFR   Intensive IFR   Very Intensive IFR
Visi :
Ceiling :
>= 8 km
>= 3000ft
5 to 8 km
1000 to 3000 ft
1500m to 5 km
500 to 1000 ft
800 to 1500m
200 to 500 ft
< 800m
< 200 ft
Symbols :   Thunderstorms  Fog  Heavy snow  Heavy precipitations  Wind > 20 kt
SIGMETs :     Misc.  Thunderstorms  Icing  Turbulence  Mountain Waves  Volcanic Ashes






- Airport Elevation : 115 ft
- IATA code : HER


LGIR - Nikos Kazantzakis

CURRENT METAR :
  • 210020Z 28016KT 9999 TS FEW018CB BKN030 13/05 Q1011 TEMPO TSRA

EXPIRED METARs :
  • 202350Z 25014KT 9999 TS FEW018CB BKN030 13/05 Q1011 TEMPO TSRA
  • 202320Z 26016KT 9999 FEW018TCU BKN030 12/04 Q1011 NOSIG
  • 202250Z 24016KT 9999 FEW018TCU BKN030 12/04 Q1011 NOSIG
  • 202220Z 27012KT 9999 FEW018TCU BKN030 13/05 Q1012 NOSIG
  • 202150Z 25010KT 9999 FEW018TCU BKN030 13/05 Q1012 NOSIG

TAF TAF LGIR
Valid from the 21 at 00:00 until the 22 at 00:00 UTC


202300Z 2100/2124 28017KT 9999 FEW020 SCT030
TEMPO 2100/2104 29015G25KT
PROB40
TEMPO 2100/2112 5000 RA FEW018TCU BKN025
PROB30
TEMPO 2102/2109 4000 TSRA FEW010 FEW018CB BKN020
BECMG 2104/2106 35022G35KT



MET'MAP, your aeronautical weather chart ! - Copyright ORBIFLY December 2007 - Disclaimer

ORBIFLY MET'MAP TEAM :

Programming & Development : Alexandra Zaïnal
Concept & original design : Baudouin d'Aumeries
Assistance for programming : Marc-Olivier Méhu
Technical & hardware support : Manuel Goepfert

Contact : metmap@orbifly.com




SOURCES & CREDITS :

   NOAA